sensor_id;sensor_type;location;lat;lon;timestamp;temperature;humidity
21121;DHT22;12519;43.318;21.898;2023-09-12T00:03:59;21.2;80.0
21121;DHT22;12519;43.318;21.898;2023-09-12T00:08:36;21.2;80.0
21121;DHT22;12519;43.318;21.898;2023-09-12T00:13:12;21.2;80.0
21121;DHT22;12519;43.318;21.898;2023-09-12T00:17:49;21.2;80.0
21121;DHT22;12519;43.318;21.898;2023-09-12T00:22:25;21.2;80.0
21121;DHT22;12519;43.318;21.898;2023-09-12T00:27:02;20.9;80.0
21121;DHT22;12519;43.318;21.898;2023-09-12T00:31:39;20.9;80.0
21121;DHT22;12519;43.318;21.898;2023-09-12T00:36:16;20.6;81.0
21121;DHT22;12519;43.318;21.898;2023-09-12T00:40:53;20.6;81.0
21121;DHT22;12519;43.318;21.898;2023-09-12T00:45:30;20.6;81.0
21121;DHT22;12519;43.318;21.898;2023-09-12T00:50:10;20.6;81.0
21121;DHT22;12519;43.318;21.898;2023-09-12T00:54:49;20.6;81.0
21121;DHT22;12519;43.318;21.898;2023-09-12T00:59:26;20.6;81.0
21121;DHT22;12519;43.318;21.898;2023-09-12T01:04:04;20.4;82.0
21121;DHT22;12519;43.318;21.898;2023-09-12T01:08:42;20.4;82.0
21121;DHT22;12519;43.318;21.898;2023-09-12T01:13:19;20.4;82.0
21121;DHT22;12519;43.318;21.898;2023-09-12T01:17:57;20.2;82.0
21121;DHT22;12519;43.318;21.898;2023-09-12T01:23:08;20.2;82.0
21121;DHT22;12519;43.318;21.898;2023-09-12T01:28:47;20.0;83.0
21121;DHT22;12519;43.318;21.898;2023-09-12T01:33:33;20.0;83.0
21121;DHT22;12519;43.318;21.898;2023-09-12T01:38:10;19.8;83.0
21121;DHT22;12519;43.318;21.898;2023-09-12T01:42:52;19.8;83.0
21121;DHT22;12519;43.318;21.898;2023-09-12T01:47:42;19.6;84.0
21121;DHT22;12519;43.318;21.898;2023-09-12T01:52:27;19.6;84.0
21121;DHT22;12519;43.318;21.898;2023-09-12T01:57:07;19.3;85.0
21121;DHT22;12519;43.318;21.898;2023-09-12T02:01:47;19.3;85.0
21121;DHT22;12519;43.318;21.898;2023-09-12T02:06:23;19.3;85.0
21121;DHT22;12519;43.318;21.898;2023-09-12T02:11:00;19.3;85.0
21121;DHT22;12519;43.318;21.898;2023-09-12T02:15:36;19.3;85.0
21121;DHT22;12519;43.318;21.898;2023-09-12T02:20:13;19.3;85.0
21121;DHT22;12519;43.318;21.898;2023-09-12T02:24:50;19.2;85.0
21121;DHT22;12519;43.318;21.898;2023-09-12T02:29:27;19.2;85.0
21121;DHT22;12519;43.318;21.898;2023-09-12T02:34:04;19.0;86.0
21121;DHT22;12519;43.318;21.898;2023-09-12T02:38:41;19.0;86.0
21121;DHT22;12519;43.318;21.898;2023-09-12T02:43:17;19.0;86.0
21121;DHT22;12519;43.318;21.898;2023-09-12T02:47:54;18.9;86.0
21121;DHT22;12519;43.318;21.898;2023-09-12T02:52:30;18.9;86.0
21121;DHT22;12519;43.318;21.898;2023-09-12T02:57:07;18.8;86.0
21121;DHT22;12519;43.318;21.898;2023-09-12T03:01:43;18.8;86.0
21121;DHT22;12519;43.318;21.898;2023-09-12T03:06:20;19.2;86.0
21121;DHT22;12519;43.318;21.898;2023-09-12T03:10:57;19.2;86.0
21121;DHT22;12519;43.318;21.898;2023-09-12T03:15:36;19.6;86.0
21121;DHT22;12519;43.318;21.898;2023-09-12T03:20:13;19.6;86.0
21121;DHT22;12519;43.318;21.898;2023-09-12T03:24:50;20.1;84.0
21121;DHT22;12519;43.318;21.898;2023-09-12T03:29:26;20.1;84.0
21121;DHT22;12519;43.318;21.898;2023-09-12T03:34:03;20.1;84.0
21121;DHT22;12519;43.318;21.898;2023-09-12T03:38:39;20.6;83.0
21121;DHT22;12519;43.318;21.898;2023-09-12T03:43:16;20.6;83.0
21121;DHT22;12519;43.318;21.898;2023-09-12T03:47:52;20.4;83.0
21121;DHT22;12519;43.318;21.898;2023-09-12T03:52:29;20.4;83.0
21121;DHT22;12519;43.318;21.898;2023-09-12T03:57:06;20.1;82.0
21121;DHT22;12519;43.318;21.898;2023-09-12T04:01:43;20.1;82.0
21121;DHT22;12519;43.318;21.898;2023-09-12T04:06:20;20.2;83.0
21121;DHT22;12519;43.318;21.898;2023-09-12T04:10:57;20.2;83.0
21121;DHT22;12519;43.318;21.898;2023-09-12T04:15:33;20.2;84.0
21121;DHT22;12519;43.318;21.898;2023-09-12T04:20:11;20.2;84.0
21121;DHT22;12519;43.318;21.898;2023-09-12T04:24:48;20.4;83.0
21121;DHT22;12519;43.318;21.898;2023-09-12T04:29:24;20.4;83.0
21121;DHT22;12519;43.318;21.898;2023-09-12T04:34:01;20.4;83.0
21121;DHT22;12519;43.318;21.898;2023-09-12T04:38:38;20.6;82.0
21121;DHT22;12519;43.318;21.898;2023-09-12T04:43:15;20.6;82.0
21121;DHT22;12519;43.318;21.898;2023-09-12T04:47:51;20.4;82.0
21121;DHT22;12519;43.318;21.898;2023-09-12T04:52:28;20.4;82.0
21121;DHT22;12519;43.318;21.898;2023-09-12T04:57:04;20.2;82.0
21121;DHT22;12519;43.318;21.898;2023-09-12T05:01:43;20.2;82.0
21121;DHT22;12519;43.318;21.898;2023-09-12T05:06:20;19.5;83.0
21121;DHT22;12519;43.318;21.898;2023-09-12T05:10:56;19.5;83.0
21121;DHT22;12519;43.318;21.898;2023-09-12T05:15:32;18.9;84.0
21121;DHT22;12519;43.318;21.898;2023-09-12T05:20:11;18.9;84.0
21121;DHT22;12519;43.318;21.898;2023-09-12T05:24:47;18.7;85.0
21121;DHT22;12519;43.318;21.898;2023-09-12T05:29:24;18.7;85.0
21121;DHT22;12519;43.318;21.898;2023-09-12T05:34:00;18.7;85.0
21121;DHT22;12519;43.318;21.898;2023-09-12T05:38:36;18.5;86.0
21121;DHT22;12519;43.318;21.898;2023-09-12T05:43:13;18.5;86.0
21121;DHT22;12519;43.318;21.898;2023-09-12T05:47:49;19.0;86.0
21121;DHT22;12519;43.318;21.898;2023-09-12T05:52:26;19.0;86.0
21121;DHT22;12519;43.318;21.898;2023-09-12T05:57:04;19.4;85.0
21121;DHT22;12519;43.318;21.898;2023-09-12T06:01:41;19.4;85.0
21121;DHT22;12519;43.318;21.898;2023-09-12T06:06:17;19.4;85.0
21121;DHT22;12519;43.318;21.898;2023-09-12T06:10:53;19.4;85.0
21121;DHT22;12519;43.318;21.898;2023-09-12T06:15:29;19.5;85.0
21121;DHT22;12519;43.318;21.898;2023-09-12T06:20:09;19.5;85.0
21121;DHT22;12519;43.318;21.898;2023-09-12T06:24:46;19.6;85.0
21121;DHT22;12519;43.318;21.898;2023-09-12T06:29:23;19.6;85.0
21121;DHT22;12519;43.318;21.898;2023-09-12T06:34:00;19.6;85.0
21121;DHT22;12519;43.318;21.898;2023-09-12T06:38:37;19.7;85.0
21121;DHT22;12519;43.318;21.898;2023-09-12T06:43:14;19.7;85.0
21121;DHT22;12519;43.318;21.898;2023-09-12T06:47:51;20.6;84.0
21121;DHT22;12519;43.318;21.898;2023-09-12T06:52:27;20.6;84.0
21121;DHT22;12519;43.318;21.898;2023-09-12T06:57:04;21.5;84.0
21121;DHT22;12519;43.318;21.898;2023-09-12T07:01:41;21.5;84.0
21121;DHT22;12519;43.318;21.898;2023-09-12T07:06:18;21.4;83.0
21121;DHT22;12519;43.318;21.898;2023-09-12T07:10:55;21.4;83.0
21121;DHT22;12519;43.318;21.898;2023-09-12T07:15:35;21.2;82.0
21121;DHT22;12519;43.318;21.898;2023-09-12T07:20:12;21.2;82.0
21121;DHT22;12519;43.318;21.898;2023-09-12T07:24:49;21.6;81.0
21121;DHT22;12519;43.318;21.898;2023-09-12T07:29:26;21.6;81.0
21121;DHT22;12519;43.318;21.898;2023-09-12T07:34:02;21.6;81.0
21121;DHT22;12519;43.318;21.898;2023-09-12T07:38:39;22.0;81.0
21121;DHT22;12519;43.318;21.898;2023-09-12T07:43:15;22.0;81.0
21121;DHT22;12519;43.318;21.898;2023-09-12T07:47:52;22.8;79.0
21121;DHT22;12519;43.318;21.898;2023-09-12T07:52:29;22.8;79.0
21121;DHT22;12519;43.318;21.898;2023-09-12T07:57:05;23.5;77.0
21121;DHT22;12519;43.318;21.898;2023-09-12T08:01:42;23.5;77.0
21121;DHT22;12519;43.318;21.898;2023-09-12T08:06:18;23.6;76.0
21121;DHT22;12519;43.318;21.898;2023-09-12T08:10:55;23.6;76.0
21121;DHT22;12519;43.318;21.898;2023-09-12T08:15:31;23.8;75.0
21121;DHT22;12519;43.318;21.898;2023-09-12T08:20:09;23.8;75.0
21121;DHT22;12519;43.318;21.898;2023-09-12T08:24:47;24.6;73.0
21121;DHT22;12519;43.318;21.898;2023-09-12T08:29:23;24.6;73.0
21121;DHT22;12519;43.318;21.898;2023-09-12T08:34:00;24.6;73.0
21121;DHT22;12519;43.318;21.898;2023-09-12T08:38:36;25.4;72.0
21121;DHT22;12519;43.318;21.898;2023-09-12T08:43:13;25.4;72.0
21121;DHT22;12519;43.318;21.898;2023-09-12T08:47:55;25.6;70.0
21121;DHT22;12519;43.318;21.898;2023-09-12T08:52:35;25.6;70.0
21121;DHT22;12519;43.318;21.898;2023-09-12T08:57:12;25.9;68.0
21121;DHT22;12519;43.318;21.898;2023-09-12T09:01:50;25.9;68.0
21121;DHT22;12519;43.318;21.898;2023-09-12T09:06:31;26.1;68.0
21121;DHT22;12519;43.318;21.898;2023-09-12T09:11:09;26.1;68.0
21121;DHT22;12519;43.318;21.898;2023-09-12T09:15:46;26.3;68.0
21121;DHT22;12519;43.318;21.898;2023-09-12T09:20:29;26.3;68.0
21121;DHT22;12519;43.318;21.898;2023-09-12T09:25:12;26.6;66.0
21121;DHT22;12519;43.318;21.898;2023-09-12T09:29:50;26.6;66.0
21121;DHT22;12519;43.318;21.898;2023-09-12T09:34:27;26.6;66.0
21121;DHT22;12519;43.318;21.898;2023-09-12T09:39:05;26.9;65.0
21121;DHT22;12519;43.318;21.898;2023-09-12T09:43:45;26.9;65.0
21121;DHT22;12519;43.318;21.898;2023-09-12T09:48:26;27.2;65.0
21121;DHT22;12519;43.318;21.898;2023-09-12T09:53:05;27.2;65.0
21121;DHT22;12519;43.318;21.898;2023-09-12T09:57:41;27.5;65.0
21121;DHT22;12519;43.318;21.898;2023-09-12T10:02:25;27.5;65.0
21121;DHT22;12519;43.318;21.898;2023-09-12T10:07:05;27.6;65.0
21121;DHT22;12519;43.318;21.898;2023-09-12T10:11:48;27.6;65.0
21121;DHT22;12519;43.318;21.898;2023-09-12T10:16:33;27.7;64.0
21121;DHT22;12519;43.318;21.898;2023-09-12T10:21:30;27.7;64.0
21121;DHT22;12519;43.318;21.898;2023-09-12T10:26:14;27.8;64.0
21121;DHT22;12519;43.318;21.898;2023-09-12T10:30:55;27.8;64.0
21121;DHT22;12519;43.318;21.898;2023-09-12T10:35:40;27.8;64.0
21121;DHT22;12519;43.318;21.898;2023-09-12T10:40:21;27.8;64.0
21121;DHT22;12519;43.318;21.898;2023-09-12T10:45:02;27.8;64.0
21121;DHT22;12519;43.318;21.898;2023-09-12T10:49:44;28.0;63.0
21121;DHT22;12519;43.318;21.898;2023-09-12T10:54:35;28.0;63.0
21121;DHT22;12519;43.318;21.898;2023-09-12T10:59:15;28.1;63.0
21121;DHT22;12519;43.318;21.898;2023-09-12T11:03:51;28.1;63.0
21121;DHT22;12519;43.318;21.898;2023-09-12T11:08:28;28.3;62.0
21121;DHT22;12519;43.318;21.898;2023-09-12T11:13:05;28.3;62.0
21121;DHT22;12519;43.318;21.898;2023-09-12T11:17:43;28.5;62.0
21121;DHT22;12519;43.318;21.898;2023-09-12T11:22:30;28.5;62.0
21121;DHT22;12519;43.318;21.898;2023-09-12T11:27:07;28.7;61.0
21121;DHT22;12519;43.318;21.898;2023-09-12T11:31:56;28.7;61.0
21121;DHT22;12519;43.318;21.898;2023-09-12T11:36:41;28.9;60.0
21121;DHT22;12519;43.318;21.898;2023-09-12T11:41:39;28.9;60.0
21121;DHT22;12519;43.318;21.898;2023-09-12T11:46:17;29.0;59.0
21121;DHT22;12519;43.318;21.898;2023-09-12T11:50:56;29.0;59.0
21121;DHT22;12519;43.318;21.898;2023-09-12T11:55:43;29.2;59.0
21121;DHT22;12519;43.318;21.898;2023-09-12T12:00:27;29.2;59.0
21121;DHT22;12519;43.318;21.898;2023-09-12T12:05:11;29.2;59.0
21121;DHT22;12519;43.318;21.898;2023-09-12T12:09:51;29.4;58.0
21121;DHT22;12519;43.318;21.898;2023-09-12T12:14:27;29.4;58.0
21121;DHT22;12519;43.318;21.898;2023-09-12T12:19:09;29.5;58.0
21121;DHT22;12519;43.318;21.898;2023-09-12T12:23:59;29.5;58.0
21121;DHT22;12519;43.318;21.898;2023-09-12T12:28:40;29.6;57.0
21121;DHT22;12519;43.318;21.898;2023-09-12T12:33:17;29.6;57.0
21121;DHT22;12519;43.318;21.898;2023-09-12T12:37:56;29.7;56.0
21121;DHT22;12519;43.318;21.898;2023-09-12T12:42:39;29.7;56.0
21121;DHT22;12519;43.318;21.898;2023-09-12T12:47:22;29.8;56.0
21121;DHT22;12519;43.318;21.898;2023-09-12T12:51:58;29.8;56.0
21121;DHT22;12519;43.318;21.898;2023-09-12T12:56:39;29.9;56.0
21121;DHT22;12519;43.318;21.898;2023-09-12T13:01:18;29.9;56.0
21121;DHT22;12519;43.318;21.898;2023-09-12T13:05:55;30.1;55.0
21121;DHT22;12519;43.318;21.898;2023-09-12T13:10:31;30.1;55.0
21121;DHT22;12519;43.318;21.898;2023-09-12T13:15:10;30.1;55.0
21121;DHT22;12519;43.318;21.898;2023-09-12T13:19:46;30.3;54.0
21121;DHT22;12519;43.318;21.898;2023-09-12T13:24:22;30.3;54.0
21121;DHT22;12519;43.318;21.898;2023-09-12T13:28:59;30.4;54.0
21121;DHT22;12519;43.318;21.898;2023-09-12T13:33:35;30.4;54.0
21121;DHT22;12519;43.318;21.898;2023-09-12T13:38:12;30.6;53.0
21121;DHT22;12519;43.318;21.898;2023-09-12T13:42:48;30.6;53.0
21121;DHT22;12519;43.318;21.898;2023-09-12T13:47:24;30.6;53.0
21121;DHT22;12519;43.318;21.898;2023-09-12T13:52:01;30.6;53.0
21121;DHT22;12519;43.318;21.898;2023-09-12T13:56:37;30.6;53.0
21121;DHT22;12519;43.318;21.898;2023-09-12T14:01:16;30.6;53.0
21121;DHT22;12519;43.318;21.898;2023-09-12T14:05:54;30.6;53.0
21121;DHT22;12519;43.318;21.898;2023-09-12T14:10:30;30.6;53.0
21121;DHT22;12519;43.318;21.898;2023-09-12T14:15:10;30.6;53.0
21121;DHT22;12519;43.318;21.898;2023-09-12T14:19:47;30.6;53.0
21121;DHT22;12519;43.318;21.898;2023-09-12T14:24:24;30.6;53.0
21121;DHT22;12519;43.318;21.898;2023-09-12T14:29:00;30.5;53.0
21121;DHT22;12519;43.318;21.898;2023-09-12T14:33:36;30.5;53.0
21121;DHT22;12519;43.318;21.898;2023-09-12T14:38:12;30.4;53.0
21121;DHT22;12519;43.318;21.898;2023-09-12T14:42:49;30.4;53.0
21121;DHT22;12519;43.318;21.898;2023-09-12T14:47:25;30.3;53.0
21121;DHT22;12519;43.318;21.898;2023-09-12T14:52:04;30.3;53.0
21121;DHT22;12519;43.318;21.898;2023-09-12T14:56:42;30.2;52.0
21121;DHT22;12519;43.318;21.898;2023-09-12T15:01:19;30.2;52.0
21121;DHT22;12519;43.318;21.898;2023-09-12T15:05:56;30.2;52.0
21121;DHT22;12519;43.318;21.898;2023-09-12T15:10:33;30.2;52.0
21121;DHT22;12519;43.318;21.898;2023-09-12T15:15:11;30.2;52.0
21121;DHT22;12519;43.318;21.898;2023-09-12T15:19:49;30.1;52.0
21121;DHT22;12519;43.318;21.898;2023-09-12T15:24:26;30.1;52.0
21121;DHT22;12519;43.318;21.898;2023-09-12T15:29:03;30.0;52.0
21121;DHT22;12519;43.318;21.898;2023-09-12T15:33:39;30.0;52.0
21121;DHT22;12519;43.318;21.898;2023-09-12T15:38:16;30.0;52.0
21121;DHT22;12519;43.318;21.898;2023-09-12T15:42:52;30.0;52.0
21121;DHT22;12519;43.318;21.898;2023-09-12T15:47:29;29.8;52.0
21121;DHT22;12519;43.318;21.898;2023-09-12T15:52:06;29.8;52.0
21121;DHT22;12519;43.318;21.898;2023-09-12T15:56:43;29.7;52.0
21121;DHT22;12519;43.318;21.898;2023-09-12T16:01:19;29.7;52.0
21121;DHT22;12519;43.318;21.898;2023-09-12T16:05:56;29.4;53.0
21121;DHT22;12519;43.318;21.898;2023-09-12T16:10:32;29.4;53.0
21121;DHT22;12519;43.318;21.898;2023-09-12T16:15:10;29.4;53.0
21121;DHT22;12519;43.318;21.898;2023-09-12T16:19:46;29.2;54.0
21121;DHT22;12519;43.318;21.898;2023-09-12T16:24:22;29.2;54.0
21121;DHT22;12519;43.318;21.898;2023-09-12T16:28:59;28.8;55.0
21121;DHT22;12519;43.318;21.898;2023-09-12T16:33:35;28.8;55.0
21121;DHT22;12519;43.318;21.898;2023-09-12T16:38:13;28.3;56.0
21121;DHT22;12519;43.318;21.898;2023-09-12T16:42:49;28.3;56.0
21121;DHT22;12519;43.318;21.898;2023-09-12T16:47:26;28.2;57.0
21121;DHT22;12519;43.318;21.898;2023-09-12T16:52:04;28.2;57.0
21121;DHT22;12519;43.318;21.898;2023-09-12T16:56:41;28.0;59.0
21121;DHT22;12519;43.318;21.898;2023-09-12T17:01:18;28.0;59.0
21121;DHT22;12519;43.318;21.898;2023-09-12T17:05:54;27.6;61.0
21121;DHT22;12519;43.318;21.898;2023-09-12T17:10:31;27.6;61.0
21121;DHT22;12519;43.318;21.898;2023-09-12T17:15:09;27.6;61.0
21121;DHT22;12519;43.318;21.898;2023-09-12T17:19:46;27.3;62.0
21121;DHT22;12519;43.318;21.898;2023-09-12T17:24:23;27.3;62.0
21121;DHT22;12519;43.318;21.898;2023-09-12T17:29:00;27.0;64.0
21121;DHT22;12519;43.318;21.898;2023-09-12T17:33:36;27.0;64.0
21121;DHT22;12519;43.318;21.898;2023-09-12T17:38:13;26.6;65.0
21121;DHT22;12519;43.318;21.898;2023-09-12T17:42:50;26.6;65.0
21121;DHT22;12519;43.318;21.898;2023-09-12T17:47:27;26.4;66.0
21121;DHT22;12519;43.318;21.898;2023-09-12T17:52:04;26.4;66.0
21121;DHT22;12519;43.318;21.898;2023-09-12T17:56:41;26.2;68.0
21121;DHT22;12519;43.318;21.898;2023-09-12T18:01:17;26.2;68.0
21121;DHT22;12519;43.318;21.898;2023-09-12T18:05:54;25.8;67.0
21121;DHT22;12519;43.318;21.898;2023-09-12T18:10:31;25.8;67.0
21121;DHT22;12519;43.318;21.898;2023-09-12T18:15:10;25.8;67.0
21121;DHT22;12519;43.318;21.898;2023-09-12T18:19:46;25.5;67.0
21121;DHT22;12519;43.318;21.898;2023-09-12T18:24:22;25.5;67.0
21121;DHT22;12519;43.318;21.898;2023-09-12T18:29:02;25.4;68.0
21121;DHT22;12519;43.318;21.898;2023-09-12T18:33:41;25.4;68.0
21121;DHT22;12519;43.318;21.898;2023-09-12T18:38:19;25.2;68.0
21121;DHT22;12519;43.318;21.898;2023-09-12T18:42:56;25.2;68.0
21121;DHT22;12519;43.318;21.898;2023-09-12T18:47:32;25.0;68.0
21121;DHT22;12519;43.318;21.898;2023-09-12T18:52:08;25.0;68.0
21121;DHT22;12519;43.318;21.898;2023-09-12T18:56:48;24.8;68.0
21121;DHT22;12519;43.318;21.898;2023-09-12T19:01:26;24.8;68.0
21121;DHT22;12519;43.318;21.898;2023-09-12T19:06:03;24.6;69.0
21121;DHT22;12519;43.318;21.898;2023-09-12T19:10:40;24.6;69.0
21121;DHT22;12519;43.318;21.898;2023-09-12T19:15:16;24.6;69.0
21121;DHT22;12519;43.318;21.898;2023-09-12T19:19:53;24.5;69.0
21121;DHT22;12519;43.318;21.898;2023-09-12T19:24:29;24.5;69.0
21121;DHT22;12519;43.318;21.898;2023-09-12T19:29:05;24.2;69.0
21121;DHT22;12519;43.318;21.898;2023-09-12T19:33:41;24.2;69.0
21121;DHT22;12519;43.318;21.898;2023-09-12T19:38:18;24.0;70.0
21121;DHT22;12519;43.318;21.898;2023-09-12T19:42:54;24.0;70.0
21121;DHT22;12519;43.318;21.898;2023-09-12T19:47:31;24.0;70.0
21121;DHT22;12519;43.318;21.898;2023-09-12T19:52:08;24.0;70.0
21121;DHT22;12519;43.318;21.898;2023-09-12T19:56:45;23.9;71.0
21121;DHT22;12519;43.318;21.898;2023-09-12T20:01:22;23.9;71.0
21121;DHT22;12519;43.318;21.898;2023-09-12T20:05:59;23.9;71.0
21121;DHT22;12519;43.318;21.898;2023-09-12T20:10:36;23.7;71.0
21121;DHT22;12519;43.318;21.898;2023-09-12T20:15:13;23.7;71.0
21121;DHT22;12519;43.318;21.898;2023-09-12T20:19:51;23.5;71.0
21121;DHT22;12519;43.318;21.898;2023-09-12T20:24:28;23.5;71.0
21121;DHT22;12519;43.318;21.898;2023-09-12T20:29:04;23.2;72.0
21121;DHT22;12519;43.318;21.898;2023-09-12T20:33:41;23.2;72.0
21121;DHT22;12519;43.318;21.898;2023-09-12T20:38:18;23.0;72.0
21121;DHT22;12519;43.318;21.898;2023-09-12T20:42:56;23.0;72.0
21121;DHT22;12519;43.318;21.898;2023-09-12T20:47:33;22.9;73.0
21121;DHT22;12519;43.318;21.898;2023-09-12T20:52:10;22.9;73.0
21121;DHT22;12519;43.318;21.898;2023-09-12T20:56:49;22.8;73.0
21121;DHT22;12519;43.318;21.898;2023-09-12T21:01:25;22.8;73.0
21121;DHT22;12519;43.318;21.898;2023-09-12T21:06:01;22.8;73.0
21121;DHT22;12519;43.318;21.898;2023-09-12T21:10:38;22.7;73.0
21121;DHT22;12519;43.318;21.898;2023-09-12T21:15:15;22.7;73.0
21121;DHT22;12519;43.318;21.898;2023-09-12T21:19:52;22.6;73.0
21121;DHT22;12519;43.318;21.898;2023-09-12T21:24:29;22.6;73.0
21121;DHT22;12519;43.318;21.898;2023-09-12T21:29:05;22.7;73.0
21121;DHT22;12519;43.318;21.898;2023-09-12T21:33:43;22.7;73.0
21121;DHT22;12519;43.318;21.898;2023-09-12T21:38:19;22.8;73.0
21121;DHT22;12519;43.318;21.898;2023-09-12T21:42:56;22.8;73.0
21121;DHT22;12519;43.318;21.898;2023-09-12T21:47:37;22.6;73.0
21121;DHT22;12519;43.318;21.898;2023-09-12T21:52:14;22.6;73.0
21121;DHT22;12519;43.318;21.898;2023-09-12T21:56:51;22.3;74.0
21121;DHT22;12519;43.318;21.898;2023-09-12T22:01:27;22.3;74.0
21121;DHT22;12519;43.318;21.898;2023-09-12T22:06:06;22.3;74.0
21121;DHT22;12519;43.318;21.898;2023-09-12T22:10:42;22.0;74.0
21121;DHT22;12519;43.318;21.898;2023-09-12T22:15:19;22.0;74.0
21121;DHT22;12519;43.318;21.898;2023-09-12T22:19:55;21.8;74.0
21121;DHT22;12519;43.318;21.898;2023-09-12T22:24:31;21.8;74.0
21121;DHT22;12519;43.318;21.898;2023-09-12T22:29:07;21.9;74.0
21121;DHT22;12519;43.318;21.898;2023-09-12T22:33:44;21.9;74.0
21121;DHT22;12519;43.318;21.898;2023-09-12T22:38:20;22.0;75.0
21121;DHT22;12519;43.318;21.898;2023-09-12T22:42:56;22.0;75.0
21121;DHT22;12519;43.318;21.898;2023-09-12T22:47:33;22.0;75.0
21121;DHT22;12519;43.318;21.898;2023-09-12T22:52:10;22.0;75.0
21121;DHT22;12519;43.318;21.898;2023-09-12T22:56:47;22.1;75.0
21121;DHT22;12519;43.318;21.898;2023-09-12T23:01:23;22.1;75.0
21121;DHT22;12519;43.318;21.898;2023-09-12T23:06:03;22.1;75.0
21121;DHT22;12519;43.318;21.898;2023-09-12T23:10:40;22.0;75.0
21121;DHT22;12519;43.318;21.898;2023-09-12T23:15:17;22.0;75.0
21121;DHT22;12519;43.318;21.898;2023-09-12T23:19:54;21.8;75.0
21121;DHT22;12519;43.318;21.898;2023-09-12T23:24:31;21.8;75.0
21121;DHT22;12519;43.318;21.898;2023-09-12T23:29:07;21.8;75.0
21121;DHT22;12519;43.318;21.898;2023-09-12T23:33:44;21.8;75.0
21121;DHT22;12519;43.318;21.898;2023-09-12T23:38:20;21.8;75.0
21121;DHT22;12519;43.318;21.898;2023-09-12T23:42:56;21.8;75.0
21121;DHT22;12519;43.318;21.898;2023-09-12T23:47:32;21.5;75.0
21121;DHT22;12519;43.318;21.898;2023-09-12T23:52:09;21.5;75.0
21121;DHT22;12519;43.318;21.898;2023-09-12T23:56:45;21.2;76.0
